Aviation Digital Data Service (ADDS)

Output produced by METARs form (1821 UTC 25 March 2019)
found at http://www.aviationweather.gov/metar/data/
 
METAR text: ZUCK 251800Z 01003MPS CAVOK 14/09 Q1018 NOSIG
Conditions at: ZUCK (CHONGQING/CHUNGK, CN) observed 1800 UTC 25 March 2019
Temperature: 14.0°C (57°F)
Dewpoint: 9.0°C (48°F) [RH = 72%]
Pressure (altimeter): 30.06 inches Hg (1018.0 mb)
Winds: from the N (10 degrees) at 7 MPH (6 knots; 3.1 m/s)
Visibility: 6 or more miles (10+ km)
Ceiling: ceiling and visibility are OK
Clouds: unknown
Weather: no significant weather observed at this time

METAR text: ZUCK 251700Z 01003MPS CAVOK 14/09 Q1018 NOSIG
Conditions at: ZUCK (CHONGQING/CHUNGK, CN) observed 1700 UTC 25 March 2019
Temperature: 14.0°C (57°F)
Dewpoint: 9.0°C (48°F) [RH = 72%]
Pressure (altimeter): 30.06 inches Hg (1018.0 mb)
Winds: from the N (10 degrees) at 7 MPH (6 knots; 3.1 m/s)
Visibility: 6 or more miles (10+ km)
Ceiling: ceiling and visibility are OK
Clouds: unknown
Weather: no significant weather observed at this time

METAR text: ZUCK 251600Z 36003MPS CAVOK 15/09 Q1018 NOSIG
Conditions at: ZUCK (CHONGQING/CHUNGK, CN) observed 1600 UTC 25 March 2019
Temperature: 15.0°C (59°F)
Dewpoint: 9.0°C (48°F) [RH = 67%]
Pressure (altimeter): 30.06 inches Hg (1018.0 mb)
Winds: from the N (360 degrees) at 7 MPH (6 knots; 3.1 m/s)
Visibility: 6 or more miles (10+ km)
Ceiling: ceiling and visibility are OK
Clouds: unknown
Weather: no significant weather observed at this time

METAR text: ZUCK 251500Z 36003MPS CAVOK 15/08 Q1018 NOSIG
Conditions at: ZUCK (CHONGQING/CHUNGK, CN) observed 1500 UTC 25 March 2019
Temperature: 15.0°C (59°F)
Dewpoint: 8.0°C (46°F) [RH = 63%]
Pressure (altimeter): 30.06 inches Hg (1018.0 mb)
Winds: from the N (360 degrees) at 7 MPH (6 knots; 3.1 m/s)
Visibility: 6 or more miles (10+ km)
Ceiling: ceiling and visibility are OK
Clouds: unknown
Weather: no significant weather observed at this time

METAR text: ZUCK 251400Z 01003MPS CAVOK 14/08 Q1017 NOSIG
Conditions at: ZUCK (CHONGQING/CHUNGK, CN) observed 1400 UTC 25 March 2019
Temperature: 14.0°C (57°F)
Dewpoint: 8.0°C (46°F) [RH = 67%]
Pressure (altimeter): 30.03 inches Hg (1017.0 mb)
Winds: from the N (10 degrees) at 7 MPH (6 knots; 3.1 m/s)
Visibility: 6 or more miles (10+ km)
Ceiling: ceiling and visibility are OK
Clouds: unknown
Weather: no significant weather observed at this time

METAR text: ZUCK 251300Z 33003MPS CAVOK 16/08 Q1017 NOSIG
Conditions at: ZUCK (CHONGQING/CHUNGK, CN) observed 1300 UTC 25 March 2019
Temperature: 16.0°C (61°F)
Dewpoint: 8.0°C (46°F) [RH = 59%]
Pressure (altimeter): 30.03 inches Hg (1017.0 mb)
Winds: from the NNW (330 degrees) at 7 MPH (6 knots; 3.1 m/s)
Visibility: 6 or more miles (10+ km)
Ceiling: ceiling and visibility are OK
Clouds: unknown
Weather: no significant weather observed at this time

METAR text: ZUCK 251200Z 03004MPS CAVOK 16/08 Q1016 NOSIG
Conditions at: ZUCK (CHONGQING/CHUNGK, CN) observed 1200 UTC 25 March 2019
Temperature: 16.0°C (61°F)
Dewpoint: 8.0°C (46°F) [RH = 59%]
Pressure (altimeter): 30.00 inches Hg (1016.0 mb)
Winds: from the NNE (30 degrees) at 9 MPH (8 knots; 4.1 m/s)
Visibility: 6 or more miles (10+ km)
Ceiling: ceiling and visibility are OK
Clouds: unknown
Weather: no significant weather observed at this time

METAR text: ZUCK 251100Z 03004MPS CAVOK 17/08 Q1015 NOSIG
Conditions at: ZUCK (CHONGQING/CHUNGK, CN) observed 1100 UTC 25 March 2019
Temperature: 17.0°C (63°F)
Dewpoint: 8.0°C (46°F) [RH = 55%]
Pressure (altimeter): 29.97 inches Hg (1015.0 mb)
Winds: from the NNE (30 degrees) at 9 MPH (8 knots; 4.1 m/s)
Visibility: 6 or more miles (10+ km)
Ceiling: ceiling and visibility are OK
Clouds: unknown
Weather: no significant weather observed at this time

METAR text: ZUCK 251000Z 03003MPS 350V070 CAVOK 18/08 Q1014 NOSIG
Conditions at: ZUCK (CHONGQING/CHUNGK, CN) observed 1000 UTC 25 March 2019
Temperature: 18.0°C (64°F)
Dewpoint: 8.0°C (46°F) [RH = 52%]
Pressure (altimeter): 29.94 inches Hg (1014.0 mb)
Winds: from the NNE (30 degrees) at 7 MPH (6 knots; 3.1 m/s)
Visibility: 6 or more miles (10+ km)
Ceiling: ceiling and visibility are OK
Clouds: unknown
Weather: no significant weather observed at this time

METAR text: ZUCK 250900Z 05004MPS 020V100 9999 FEW046 19/08 Q1014 NOSIG
Conditions at: ZUCK (CHONGQING/CHUNGK, CN) observed 0900 UTC 25 March 2019
Temperature: 19.0°C (66°F)
Dewpoint: 8.0°C (46°F) [RH = 49%]
Pressure (altimeter): 29.94 inches Hg (1014.0 mb)
Winds: from the NE (50 degrees) at 9 MPH (8 knots; 4.1 m/s)
Visibility: 6 or more miles (10+ km)
Ceiling: at least 12,000 feet AGL
Clouds: few clouds at 4600 feet AGL
Weather: no significant weather observed at this time

METAR text: ZUCK 250800Z 01003MPS 300V080 9999 FEW040 19/07 Q1015 NOSIG
Conditions at: ZUCK (CHONGQING/CHUNGK, CN) observed 0800 UTC 25 March 2019
Temperature: 19.0°C (66°F)
Dewpoint: 7.0°C (45°F) [RH = 46%]
Pressure (altimeter): 29.97 inches Hg (1015.0 mb)
Winds: from the N (10 degrees) at 7 MPH (6 knots; 3.1 m/s)
Visibility: 6 or more miles (10+ km)
Ceiling: at least 12,000 feet AGL
Clouds: few clouds at 4000 feet AGL
Weather: no significant weather observed at this time

METAR text: ZUCK 250700Z 01004MPS 320V060 9999 SCT040 17/07 Q1017 NOSIG
Conditions at: ZUCK (CHONGQING/CHUNGK, CN) observed 0700 UTC 25 March 2019
Temperature: 17.0°C (63°F)
Dewpoint: 7.0°C (45°F) [RH = 52%]
Pressure (altimeter): 30.03 inches Hg (1017.0 mb)
Winds: from the N (10 degrees) at 9 MPH (8 knots; 4.1 m/s)
Visibility: 6 or more miles (10+ km)
Ceiling: at least 12,000 feet AGL
Clouds: scattered clouds at 4000 feet AGL
Weather: no significant weather observed at this time

METAR text: ZUCK 250600Z VRB02MPS 9999 SCT033 17/08 Q1018 NOSIG
Conditions at: ZUCK (CHONGQING/CHUNGK, CN) observed 0600 UTC 25 March 2019
Temperature: 17.0°C (63°F)
Dewpoint: 8.0°C (46°F) [RH = 55%]
Pressure (altimeter): 30.06 inches Hg (1018.0 mb)
Winds: variable direction winds at 5 MPH (4 knots; 2.1 m/s)
Visibility: 6 or more miles (10+ km)
Ceiling: at least 12,000 feet AGL
Clouds: scattered clouds at 3300 feet AGL
Weather: no significant weather observed at this time

METAR text: ZUCK 250500Z 08003MPS 040V110 9999 FEW033TCU SCT033 17/08 Q1019 NOSIG
Conditions at: ZUCK (CHONGQING/CHUNGK, CN) observed 0500 UTC 25 March 2019
Temperature: 17.0°C (63°F)
Dewpoint: 8.0°C (46°F) [RH = 55%]
Pressure (altimeter): 30.09 inches Hg (1019.0 mb)
Winds: from the E (80 degrees) at 7 MPH (6 knots; 3.1 m/s)
Visibility: 6 or more miles (10+ km)
Ceiling: at least 12,000 feet AGL
Clouds: few clouds at 3300 feet AGL
scattered clouds at 3300 feet AGL
Weather: no significant weather observed at this time

METAR text: ZUCK 250400Z 14003MPS 090V210 6000 SCT026 15/09 Q1021 NOSIG
Conditions at: ZUCK (CHONGQING/CHUNGK, CN) observed 0400 UTC 25 March 2019
Temperature: 15.0°C (59°F)
Dewpoint: 9.0°C (48°F) [RH = 67%]
Pressure (altimeter): 30.15 inches Hg (1021.0 mb)
Winds: from the SE (140 degrees) at 7 MPH (6 knots; 3.1 m/s)
Visibility: 4 miles ( 6 km)
Ceiling: at least 12,000 feet AGL
Clouds: scattered clouds at 2600 feet AGL
Weather: no significant weather observed at this time

METAR text: ZUCK 250300Z VRB02MPS 6000 FEW020 14/09 Q1022 NOSIG
Conditions at: ZUCK (CHONGQING/CHUNGK, CN) observed 0300 UTC 25 March 2019
Temperature: 14.0°C (57°F)
Dewpoint: 9.0°C (48°F) [RH = 72%]
Pressure (altimeter): 30.18 inches Hg (1022.0 mb)
Winds: variable direction winds at 5 MPH (4 knots; 2.1 m/s)
Visibility: 4 miles ( 6 km)
Ceiling: at least 12,000 feet AGL
Clouds: few clouds at 2000 feet AGL
Weather: no significant weather observed at this time

METAR text: ZUCK 250200Z 13002MPS 080V150 4500 BR NSC 12/10 Q1021 NOSIG
Conditions at: ZUCK (CHONGQING/CHUNGK, CN) observed 0200 UTC 25 March 2019
Temperature: 12.0°C (54°F)
Dewpoint: 10.0°C (50°F) [RH = 88%]
Pressure (altimeter): 30.15 inches Hg (1021.0 mb)
Winds: from the SE (130 degrees) at 5 MPH (4 knots; 2.1 m/s)
Visibility: 2.80 miles (4.51 km)
Ceiling: at least 12,000 feet AGL
Clouds: sky clear below 12,000 feet AGL
Weather: BR  (mist)

METAR text: ZUCK 250100Z 08001MPS 4000 BR NSC 10/09 Q1021 NOSIG
Conditions at: ZUCK (CHONGQING/CHUNGK, CN) observed 0100 UTC 25 March 2019
Temperature: 10.0°C (50°F)
Dewpoint: 9.0°C (48°F) [RH = 93%]
Pressure (altimeter): 30.15 inches Hg (1021.0 mb)
Winds: from the E (80 degrees) at 2 MPH (2 knots; 1.0 m/s)
Visibility: 2.49 miles (4.01 km)
Ceiling: at least 12,000 feet AGL
Clouds: sky clear below 12,000 feet AGL
Weather: BR  (mist)

METAR text: ZUCK 250000Z 01002MPS 3000 BR PRFG NSC 08/07 Q1021 NOSIG
Conditions at: ZUCK (CHONGQING/CHUNGK, CN) observed 0000 UTC 25 March 2019
Temperature: 8.0°C (46°F)
Dewpoint: 7.0°C (45°F) [RH = 93%]
Pressure (altimeter): 30.15 inches Hg (1021.0 mb)
Winds: from the N (10 degrees) at 5 MPH (4 knots; 2.1 m/s)
Visibility: 1.86 miles (2.99 km)
Ceiling: at least 12,000 feet AGL
Clouds: sky clear below 12,000 feet AGL
Weather: BR PRFG  (mist, partial fog)

METAR text: ZUCK 242300Z 02002MPS 0500 R02L/P2000 R02R/P2000 R03/P2000 FG NSC 06/06 Q1020 NOSIG
Conditions at: ZUCK (CHONGQING/CHUNGK, CN) observed 2300 UTC 24 March 2019
Temperature: 6.0°C (43°F)
Dewpoint: 6.0°C (43°F) [RH = 100%]
Pressure (altimeter): 30.12 inches Hg (1020.0 mb)
Winds: from the NNE (20 degrees) at 5 MPH (4 knots; 2.1 m/s)
Visibility: 0.31 miles (0.50 km)
Ceiling: at least 12,000 feet AGL
Clouds: sky clear below 12,000 feet AGL
Weather: FG  (fog)

METAR text: ZUCK 242200Z 36002MPS 4500 BR NSC 06/06 Q1020 BECMG TL2320 2000 BR
Conditions at: ZUCK (CHONGQING/CHUNGK, CN) observed 2200 UTC 24 March 2019
Temperature: 6.0°C (43°F)
Dewpoint: 6.0°C (43°F) [RH = 100%]
Pressure (altimeter): 30.12 inches Hg (1020.0 mb)
Winds: from the N (360 degrees) at 5 MPH (4 knots; 2.1 m/s)
Visibility: 2.80 miles (4.51 km)
Ceiling: at least 12,000 feet AGL
Clouds: sky clear below 12,000 feet AGL
Weather: BR  (mist)

METAR text: ZUCK 242100Z 36001MPS 5000 BR NSC 07/07 Q1020 NOSIG
Conditions at: ZUCK (CHONGQING/CHUNGK, CN) observed 2100 UTC 24 March 2019
Temperature: 7.0°C (45°F)
Dewpoint: 7.0°C (45°F) [RH = 100%]
Pressure (altimeter): 30.12 inches Hg (1020.0 mb)
Winds: from the N (360 degrees) at 2 MPH (2 knots; 1.0 m/s)
Visibility: 3 miles ( 5 km)
Ceiling: at least 12,000 feet AGL
Clouds: sky clear below 12,000 feet AGL
Weather: BR  (mist)

METAR text: ZUCK 242000Z 01001MPS 5000 BR NSC 08/07 Q1020 NOSIG
Conditions at: ZUCK (CHONGQING/CHUNGK, CN) observed 2000 UTC 24 March 2019
Temperature: 8.0°C (46°F)
Dewpoint: 7.0°C (45°F) [RH = 93%]
Pressure (altimeter): 30.12 inches Hg (1020.0 mb)
Winds: from the N (10 degrees) at 2 MPH (2 knots; 1.0 m/s)
Visibility: 3 miles ( 5 km)
Ceiling: at least 12,000 feet AGL
Clouds: sky clear below 12,000 feet AGL
Weather: BR  (mist)

METAR text: ZUCK 241900Z 36002MPS 6000 NSC 08/07 Q1021 NOSIG
Conditions at: ZUCK (CHONGQING/CHUNGK, CN) observed 1900 UTC 24 March 2019
Temperature: 8.0°C (46°F)
Dewpoint: 7.0°C (45°F) [RH = 93%]
Pressure (altimeter): 30.15 inches Hg (1021.0 mb)
Winds: from the N (360 degrees) at 5 MPH (4 knots; 2.1 m/s)
Visibility: 4 miles ( 6 km)
Ceiling: at least 12,000 feet AGL
Clouds: sky clear below 12,000 feet AGL
Weather: no significant weather observed at this time

METAR text: ZUCK 241800Z 02002MPS 6000 NSC 08/07 Q1021 NOSIG
Conditions at: ZUCK (CHONGQING/CHUNGK, CN) observed 1800 UTC 24 March 2019
Temperature: 8.0°C (46°F)
Dewpoint: 7.0°C (45°F) [RH = 93%]
Pressure (altimeter): 30.15 inches Hg (1021.0 mb)
Winds: from the NNE (20 degrees) at 5 MPH (4 knots; 2.1 m/s)
Visibility: 4 miles ( 6 km)
Ceiling: at least 12,000 feet AGL
Clouds: sky clear below 12,000 feet AGL
Weather: no significant weather observed at this time

METAR text: ZUCK 241700Z 35002MPS 8000 NSC 08/07 Q1021 NOSIG
Conditions at: ZUCK (CHONGQING/CHUNGK, CN) observed 1700 UTC 24 March 2019
Temperature: 8.0°C (46°F)
Dewpoint: 7.0°C (45°F) [RH = 93%]
Pressure (altimeter): 30.15 inches Hg (1021.0 mb)
Winds: from the N (350 degrees) at 5 MPH (4 knots; 2.1 m/s)
Visibility: 5 miles ( 8 km)
Ceiling: at least 12,000 feet AGL
Clouds: sky clear below 12,000 feet AGL
Weather: no significant weather observed at this time

METAR text: ZUCK 241600Z 02003MPS CAVOK 09/08 Q1022 NOSIG
Conditions at: ZUCK (CHONGQING/CHUNGK, CN) observed 1600 UTC 24 March 2019
Temperature: 9.0°C (48°F)
Dewpoint: 8.0°C (46°F) [RH = 93%]
Pressure (altimeter): 30.18 inches Hg (1022.0 mb)
Winds: from the NNE (20 degrees) at 7 MPH (6 knots; 3.1 m/s)
Visibility: 6 or more miles (10+ km)
Ceiling: ceiling and visibility are OK
Clouds: unknown
Weather: no significant weather observed at this time

METAR text: ZUCK 241500Z 01003MPS CAVOK 09/08 Q1022 NOSIG
Conditions at: ZUCK (CHONGQING/CHUNGK, CN) observed 1500 UTC 24 March 2019
Temperature: 9.0°C (48°F)
Dewpoint: 8.0°C (46°F) [RH = 93%]
Pressure (altimeter): 30.18 inches Hg (1022.0 mb)
Winds: from the N (10 degrees) at 7 MPH (6 knots; 3.1 m/s)
Visibility: 6 or more miles (10+ km)
Ceiling: ceiling and visibility are OK
Clouds: unknown
Weather: no significant weather observed at this time

METAR text: ZUCK 241400Z 35003MPS CAVOK 09/08 Q1022 NOSIG
Conditions at: ZUCK (CHONGQING/CHUNGK, CN) observed 1400 UTC 24 March 2019
Temperature: 9.0°C (48°F)
Dewpoint: 8.0°C (46°F) [RH = 93%]
Pressure (altimeter): 30.18 inches Hg (1022.0 mb)
Winds: from the N (350 degrees) at 7 MPH (6 knots; 3.1 m/s)
Visibility: 6 or more miles (10+ km)
Ceiling: ceiling and visibility are OK
Clouds: unknown
Weather: no significant weather observed at this time

METAR text: ZUCK 241300Z 14002MPS CAVOK 10/08 Q1021 NOSIG
Conditions at: ZUCK (CHONGQING/CHUNGK, CN) observed 1300 UTC 24 March 2019
Temperature: 10.0°C (50°F)
Dewpoint: 8.0°C (46°F) [RH = 87%]
Pressure (altimeter): 30.15 inches Hg (1021.0 mb)
Winds: from the SE (140 degrees) at 5 MPH (4 knots; 2.1 m/s)
Visibility: 6 or more miles (10+ km)
Ceiling: ceiling and visibility are OK
Clouds: unknown
Weather: no significant weather observed at this time

METAR text: ZUCK 241200Z 07002MPS 040V100 9999 BKN050 11/09 Q1020 NOSIG
Conditions at: ZUCK (CHONGQING/CHUNGK, CN) observed 1200 UTC 24 March 2019
Temperature: 11.0°C (52°F)
Dewpoint: 9.0°C (48°F) [RH = 87%]
Pressure (altimeter): 30.12 inches Hg (1020.0 mb)
Winds: from the ENE (70 degrees) at 5 MPH (4 knots; 2.1 m/s)
Visibility: 6 or more miles (10+ km)
Ceiling: 5000 feet AGL
Clouds: broken clouds at 5000 feet AGL
Weather: no significant weather observed at this time

METAR text: ZUCK 241100Z 05003MPS 020V080 9999 -RA SCT018 SCT040 12/09 Q1019 NOSIG
Conditions at: ZUCK (CHONGQING/CHUNGK, CN) observed 1100 UTC 24 March 2019
Temperature: 12.0°C (54°F)
Dewpoint: 9.0°C (48°F) [RH = 82%]
Pressure (altimeter): 30.09 inches Hg (1019.0 mb)
Winds: from the NE (50 degrees) at 7 MPH (6 knots; 3.1 m/s)
Visibility: 6 or more miles (10+ km)
Ceiling: at least 12,000 feet AGL
Clouds: scattered clouds at 1800 feet AGL
scattered clouds at 4000 feet AGL
Weather: -RA  (light rain)

METAR text: ZUCK 241000Z VRB01MPS 9999 SCT020 OVC040 12/08 Q1019 NOSIG
Conditions at: ZUCK (CHONGQING/CHUNGK, CN) observed 1000 UTC 24 March 2019
Temperature: 12.0°C (54°F)
Dewpoint: 8.0°C (46°F) [RH = 76%]
Pressure (altimeter): 30.09 inches Hg (1019.0 mb)
Winds: variable direction winds at 2 MPH (2 knots; 1.0 m/s)
Visibility: 6 or more miles (10+ km)
Ceiling: 4000 feet AGL
Clouds: scattered clouds at 2000 feet AGL
overcast cloud deck at 4000 feet AGL
Weather: no significant weather observed at this time

METAR text: ZUCK 240900Z 10002MPS 060V140 9999 FEW016 SCT033 12/08 Q1017 NOSIG
Conditions at: ZUCK (CHONGQING/CHUNGK, CN) observed 0900 UTC 24 March 2019
Temperature: 12.0°C (54°F)
Dewpoint: 8.0°C (46°F) [RH = 76%]
Pressure (altimeter): 30.03 inches Hg (1017.0 mb)
Winds: from the E (100 degrees) at 5 MPH (4 knots; 2.1 m/s)
Visibility: 6 or more miles (10+ km)
Ceiling: at least 12,000 feet AGL
Clouds: few clouds at 1600 feet AGL
scattered clouds at 3300 feet AGL
Weather: no significant weather observed at this time

METAR text: ZUCK 240800Z 11002MPS 060V150 9000 SCT014 SCT040 12/09 Q1018 NOSIG
Conditions at: ZUCK (CHONGQING/CHUNGK, CN) observed 0800 UTC 24 March 2019
Temperature: 12.0°C (54°F)
Dewpoint: 9.0°C (48°F) [RH = 82%]
Pressure (altimeter): 30.06 inches Hg (1018.0 mb)
Winds: from the ESE (110 degrees) at 5 MPH (4 knots; 2.1 m/s)
Visibility: 6 miles ( 9 km)
Ceiling: at least 12,000 feet AGL
Clouds: scattered clouds at 1400 feet AGL
scattered clouds at 4000 feet AGL
Weather: no significant weather observed at this time

METAR text: ZUCK 240700Z 12002MPS 070V170 9000 FEW010 SCT023 OVC040 11/09 Q1018 NOSIG
Conditions at: ZUCK (CHONGQING/CHUNGK, CN) observed 0700 UTC 24 March 2019
Temperature: 11.0°C (52°F)
Dewpoint: 9.0°C (48°F) [RH = 87%]
Pressure (altimeter): 30.06 inches Hg (1018.0 mb)
Winds: from the ESE (120 degrees) at 5 MPH (4 knots; 2.1 m/s)
Visibility: 6 miles ( 9 km)
Ceiling: 4000 feet AGL
Clouds: few clouds at 1000 feet AGL
scattered clouds at 2300 feet AGL
overcast cloud deck at 4000 feet AGL
Weather: no significant weather observed at this time

Forecast for: ZUCK (CHONGQING/CHUNGK, CN)
Text: TAF ZUCK 251503Z 2518/2618 01003MPS 6000 SCT040 TX18/2608Z TN12/2522Z
Forecast period: 1800 UTC 25 March 2019 to 1800 UTC 26 March 2019
Forecast type: FROM: standard forecast or significant change
Winds: from the N (10 degrees) at 7 MPH (6 knots; 3.1 m/s)
Visibility: 4 miles (6 km)
Ceiling: at least 12,000 feet AGL
Clouds: scattered clouds at 4000 feet AGL
Weather: no significant weather forecast for this period